sensor_id;sensor_type;location;lat;lon;timestamp;P1;durP1;ratioP1;P2;durP2;ratioP2
60588;SDS011;46421;48.610;9.334;2023-04-02T00:00:29;0.45;;;0.22;;
60588;SDS011;46421;48.610;9.334;2023-04-02T00:07:47;1.65;;;0.20;;
60588;SDS011;46421;48.610;9.334;2023-04-02T00:11:26;0.17;;;0.17;;
60588;SDS011;46421;48.610;9.334;2023-04-02T00:14:53;0.17;;;0.15;;
60588;SDS011;46421;48.610;9.334;2023-04-02T00:18:21;0.38;;;0.20;;
60588;SDS011;46421;48.610;9.334;2023-04-02T00:21:52;1.42;;;0.35;;
60588;SDS011;46421;48.610;9.334;2023-04-02T00:25:18;0.75;;;0.25;;
60588;SDS011;46421;48.610;9.334;2023-04-02T00:29:01;1.52;;;0.40;;
60588;SDS011;46421;48.610;9.334;2023-04-02T00:32:30;0.70;;;0.28;;
60588;SDS011;46421;48.610;9.334;2023-04-02T00:35:55;0.43;;;0.20;;
60588;SDS011;46421;48.610;9.334;2023-04-02T00:42:47;1.08;;;0.40;;
60588;SDS011;46421;48.610;9.334;2023-04-02T00:46:15;0.55;;;0.30;;
60588;SDS011;46421;48.610;9.334;2023-04-02T00:49:44;0.20;;;0.20;;
60588;SDS011;46421;48.610;9.334;2023-04-02T00:53:09;0.77;;;0.30;;
60588;SDS011;46421;48.610;9.334;2023-04-02T00:56:40;1.88;;;0.38;;
60588;SDS011;46421;48.610;9.334;2023-04-02T01:00:20;0.75;;;0.40;;
60588;SDS011;46421;48.610;9.334;2023-04-02T01:03:52;1.73;;;0.55;;
60588;SDS011;46421;48.610;9.334;2023-04-02T01:07:35;0.57;;;0.25;;
60588;SDS011;46421;48.610;9.334;2023-04-02T01:11:21;0.60;;;0.30;;
60588;SDS011;46421;48.610;9.334;2023-04-02T01:15:10;0.80;;;0.30;;
60588;SDS011;46421;48.610;9.334;2023-04-02T01:19:00;2.03;;;0.50;;
60588;SDS011;46421;48.610;9.334;2023-04-02T01:23:03;1.33;;;0.50;;
60588;SDS011;46421;48.610;9.334;2023-04-02T01:26:56;0.32;;;0.25;;
60588;SDS011;46421;48.610;9.334;2023-04-02T01:30:32;1.83;;;0.47;;
60588;SDS011;46421;48.610;9.334;2023-04-02T01:33:58;1.13;;;0.40;;
60588;SDS011;46421;48.610;9.334;2023-04-02T01:44:47;1.55;;;0.52;;
60588;SDS011;46421;48.610;9.334;2023-04-02T01:48:15;1.42;;;0.40;;
60588;SDS011;46421;48.610;9.334;2023-04-02T01:51:44;0.80;;;0.22;;
60588;SDS011;46421;48.610;9.334;2023-04-02T01:55:11;1.25;;;0.43;;
60588;SDS011;46421;48.610;9.334;2023-04-02T01:58:35;2.50;;;0.25;;
60588;SDS011;46421;48.610;9.334;2023-04-02T02:02:00;0.98;;;0.50;;
60588;SDS011;46421;48.610;9.334;2023-04-02T02:05:26;1.50;;;0.60;;
60588;SDS011;46421;48.610;9.334;2023-04-02T02:08:58;0.88;;;0.30;;
60588;SDS011;46421;48.610;9.334;2023-04-02T02:12:23;1.60;;;0.55;;
60588;SDS011;46421;48.610;9.334;2023-04-02T02:15:47;1.17;;;0.40;;
60588;SDS011;46421;48.610;9.334;2023-04-02T02:22:54;0.65;;;0.30;;
60588;SDS011;46421;48.610;9.334;2023-04-02T02:26:19;0.55;;;0.30;;
60588;SDS011;46421;48.610;9.334;2023-04-02T02:29:51;1.00;;;0.55;;
60588;SDS011;46421;48.610;9.334;2023-04-02T02:33:33;1.08;;;0.38;;
60588;SDS011;46421;48.610;9.334;2023-04-02T02:37:03;1.35;;;0.40;;
60588;SDS011;46421;48.610;9.334;2023-04-02T02:40:47;0.98;;;0.43;;
60588;SDS011;46421;48.610;9.334;2023-04-02T02:44:19;2.05;;;0.63;;
60588;SDS011;46421;48.610;9.334;2023-04-02T02:47:49;1.58;;;0.52;;
60588;SDS011;46421;48.610;9.334;2023-04-02T02:51:18;0.50;;;0.38;;
60588;SDS011;46421;48.610;9.334;2023-04-02T02:54:51;1.27;;;0.50;;
60588;SDS011;46421;48.610;9.334;2023-04-02T02:58:22;1.27;;;0.40;;
60588;SDS011;46421;48.610;9.334;2023-04-02T03:01:56;2.20;;;0.40;;
60588;SDS011;46421;48.610;9.334;2023-04-02T03:05:29;0.65;;;0.40;;
60588;SDS011;46421;48.610;9.334;2023-04-02T03:09:16;1.08;;;0.50;;
60588;SDS011;46421;48.610;9.334;2023-04-02T03:13:01;1.30;;;0.50;;
60588;SDS011;46421;48.610;9.334;2023-04-02T03:16:42;0.40;;;0.30;;
60588;SDS011;46421;48.610;9.334;2023-04-02T03:20:43;0.70;;;0.35;;
60588;SDS011;46421;48.610;9.334;2023-04-02T03:24:45;1.08;;;0.47;;
60588;SDS011;46421;48.610;9.334;2023-04-02T03:28:18;1.17;;;0.40;;
60588;SDS011;46421;48.610;9.334;2023-04-02T03:31:47;1.95;;;0.57;;
60588;SDS011;46421;48.610;9.334;2023-04-02T03:35:23;2.47;;;0.50;;
60588;SDS011;46421;48.610;9.334;2023-04-02T03:38:59;1.65;;;0.60;;
60588;SDS011;46421;48.610;9.334;2023-04-02T03:42:36;0.73;;;0.40;;
60588;SDS011;46421;48.610;9.334;2023-04-02T03:49:47;1.70;;;0.70;;
60588;SDS011;46421;48.610;9.334;2023-04-02T03:53:38;1.30;;;0.50;;
60588;SDS011;46421;48.610;9.334;2023-04-02T03:57:03;2.22;;;0.45;;
60588;SDS011;46421;48.610;9.334;2023-04-02T04:04:23;3.08;;;0.57;;
60588;SDS011;46421;48.610;9.334;2023-04-02T04:08:26;1.60;;;0.50;;
60588;SDS011;46421;48.610;9.334;2023-04-02T04:19:18;1.40;;;0.47;;
60588;SDS011;46421;48.610;9.334;2023-04-02T04:23:07;1.70;;;0.57;;
60588;SDS011;46421;48.610;9.334;2023-04-02T04:26:41;1.45;;;0.43;;
60588;SDS011;46421;48.610;9.334;2023-04-02T04:30:13;1.83;;;0.50;;
60588;SDS011;46421;48.610;9.334;2023-04-02T04:33:45;0.77;;;0.38;;
60588;SDS011;46421;48.610;9.334;2023-04-02T04:37:19;1.45;;;0.50;;
60588;SDS011;46421;48.610;9.334;2023-04-02T04:40:59;1.05;;;0.45;;
60588;SDS011;46421;48.610;9.334;2023-04-02T04:44:36;0.98;;;0.40;;
60588;SDS011;46421;48.610;9.334;2023-04-02T04:48:18;2.30;;;0.43;;
60588;SDS011;46421;48.610;9.334;2023-04-02T04:51:56;0.25;;;0.20;;
60588;SDS011;46421;48.610;9.334;2023-04-02T04:55:27;0.30;;;0.28;;
60588;SDS011;46421;48.610;9.334;2023-04-02T05:02:25;2.70;;;0.50;;
60588;SDS011;46421;48.610;9.334;2023-04-02T05:13:30;2.65;;;0.60;;
60588;SDS011;46421;48.610;9.334;2023-04-02T05:20:57;2.60;;;0.50;;
60588;SDS011;46421;48.610;9.334;2023-04-02T05:24:55;2.10;;;0.75;;
60588;SDS011;46421;48.610;9.334;2023-04-02T05:28:36;1.23;;;0.50;;
60588;SDS011;46421;48.610;9.334;2023-04-02T05:32:16;1.60;;;0.52;;
60588;SDS011;46421;48.610;9.334;2023-04-02T05:35:45;3.22;;;0.65;;
60588;SDS011;46421;48.610;9.334;2023-04-02T05:39:10;1.38;;;0.38;;
60588;SDS011;46421;48.610;9.334;2023-04-02T05:42:37;1.33;;;0.60;;
60588;SDS011;46421;48.610;9.334;2023-04-02T05:46:05;2.67;;;0.52;;
60588;SDS011;46421;48.610;9.334;2023-04-02T05:49:42;1.73;;;0.50;;
60588;SDS011;46421;48.610;9.334;2023-04-02T05:53:18;1.00;;;0.50;;
60588;SDS011;46421;48.610;9.334;2023-04-02T05:56:47;1.33;;;0.50;;
60588;SDS011;46421;48.610;9.334;2023-04-02T06:00:57;1.67;;;0.52;;
60588;SDS011;46421;48.610;9.334;2023-04-02T06:04:35;0.80;;;0.35;;
60588;SDS011;46421;48.610;9.334;2023-04-02T06:08:46;0.88;;;0.50;;
60588;SDS011;46421;48.610;9.334;2023-04-02T06:12:12;1.95;;;0.70;;
60588;SDS011;46421;48.610;9.334;2023-04-02T06:15:41;1.48;;;0.40;;
60588;SDS011;46421;48.610;9.334;2023-04-02T06:19:10;1.35;;;0.43;;
60588;SDS011;46421;48.610;9.334;2023-04-02T06:22:39;2.42;;;0.63;;
60588;SDS011;46421;48.610;9.334;2023-04-02T06:29:43;1.33;;;0.43;;
60588;SDS011;46421;48.610;9.334;2023-04-02T06:33:09;3.72;;;0.47;;
60588;SDS011;46421;48.610;9.334;2023-04-02T06:36:40;1.48;;;0.57;;
60588;SDS011;46421;48.610;9.334;2023-04-02T06:40:13;1.13;;;0.45;;
60588;SDS011;46421;48.610;9.334;2023-04-02T06:43:47;1.40;;;0.70;;
60588;SDS011;46421;48.610;9.334;2023-04-02T06:47:31;1.10;;;0.50;;
60588;SDS011;46421;48.610;9.334;2023-04-02T06:51:01;3.20;;;0.73;;
60588;SDS011;46421;48.610;9.334;2023-04-02T06:54:28;1.10;;;0.57;;
60588;SDS011;46421;48.610;9.334;2023-04-02T06:57:55;1.73;;;0.60;;
60588;SDS011;46421;48.610;9.334;2023-04-02T07:01:24;2.33;;;0.70;;
60588;SDS011;46421;48.610;9.334;2023-04-02T07:04:57;1.15;;;0.60;;
60588;SDS011;46421;48.610;9.334;2023-04-02T07:08:24;2.55;;;0.75;;
60588;SDS011;46421;48.610;9.334;2023-04-02T07:11:48;1.65;;;0.60;;
60588;SDS011;46421;48.610;9.334;2023-04-02T07:15:15;1.27;;;0.57;;
60588;SDS011;46421;48.610;9.334;2023-04-02T07:18:41;1.80;;;0.63;;
60588;SDS011;46421;48.610;9.334;2023-04-02T07:22:05;1.95;;;0.73;;
60588;SDS011;46421;48.610;9.334;2023-04-02T07:25:29;2.22;;;0.77;;
60588;SDS011;46421;48.610;9.334;2023-04-02T07:28:54;2.10;;;0.57;;
60588;SDS011;46421;48.610;9.334;2023-04-02T07:32:18;2.08;;;0.50;;
60588;SDS011;46421;48.610;9.334;2023-04-02T07:35:44;3.72;;;0.70;;
60588;SDS011;46421;48.610;9.334;2023-04-02T07:39:08;2.05;;;0.75;;
60588;SDS011;46421;48.610;9.334;2023-04-02T07:42:39;0.57;;;0.30;;
60588;SDS011;46421;48.610;9.334;2023-04-02T07:46:04;1.42;;;0.50;;
60588;SDS011;46421;48.610;9.334;2023-04-02T07:49:28;1.98;;;0.50;;
60588;SDS011;46421;48.610;9.334;2023-04-02T07:52:52;1.80;;;0.55;;
60588;SDS011;46421;48.610;9.334;2023-04-02T07:56:20;2.83;;;0.60;;
60588;SDS011;46421;48.610;9.334;2023-04-02T07:59:44;5.05;;;0.70;;
60588;SDS011;46421;48.610;9.334;2023-04-02T08:03:09;1.35;;;0.60;;
60588;SDS011;46421;48.610;9.334;2023-04-02T08:06:40;1.77;;;0.57;;
60588;SDS011;46421;48.610;9.334;2023-04-02T08:10:04;2.00;;;0.60;;
60588;SDS011;46421;48.610;9.334;2023-04-02T08:13:29;5.18;;;0.88;;
60588;SDS011;46421;48.610;9.334;2023-04-02T08:16:53;1.63;;;0.90;;
60588;SDS011;46421;48.610;9.334;2023-04-02T08:20:18;3.05;;;0.80;;
60588;SDS011;46421;48.610;9.334;2023-04-02T08:23:43;1.52;;;0.50;;
60588;SDS011;46421;48.610;9.334;2023-04-02T08:27:06;2.90;;;0.98;;
60588;SDS011;46421;48.610;9.334;2023-04-02T08:29:56;1.42;;;0.70;;
60588;SDS011;46421;48.610;9.334;2023-04-02T08:32:21;3.30;;;0.77;;
60588;SDS011;46421;48.610;9.334;2023-04-02T08:34:48;1.70;;;0.63;;
60588;SDS011;46421;48.610;9.334;2023-04-02T08:37:13;1.45;;;0.70;;
60588;SDS011;46421;48.610;9.334;2023-04-02T08:39:39;1.70;;;0.77;;
60588;SDS011;46421;48.610;9.334;2023-04-02T08:45:17;2.38;;;0.63;;
60588;SDS011;46421;48.610;9.334;2023-04-02T08:47:43;1.52;;;0.60;;
60588;SDS011;46421;48.610;9.334;2023-04-02T08:53:00;1.10;;;0.52;;
60588;SDS011;46421;48.610;9.334;2023-04-02T08:55:39;1.08;;;0.40;;
60588;SDS011;46421;48.610;9.334;2023-04-02T09:00:59;2.10;;;0.90;;
60588;SDS011;46421;48.610;9.334;2023-04-02T09:03:31;0.82;;;0.50;;
60588;SDS011;46421;48.610;9.334;2023-04-02T09:08:28;0.90;;;0.50;;
60588;SDS011;46421;48.610;9.334;2023-04-02T09:13:30;0.50;;;0.30;;
60588;SDS011;46421;48.610;9.334;2023-04-02T09:16:11;1.95;;;0.60;;
60588;SDS011;46421;48.610;9.334;2023-04-02T09:18:40;1.13;;;0.45;;
60588;SDS011;46421;48.610;9.334;2023-04-02T09:24:01;1.40;;;0.50;;
60588;SDS011;46421;48.610;9.334;2023-04-02T09:26:27;1.53;;;0.50;;
60588;SDS011;46421;48.610;9.334;2023-04-02T09:28:59;1.45;;;0.50;;
60588;SDS011;46421;48.610;9.334;2023-04-02T09:31:45;1.05;;;0.50;;
60588;SDS011;46421;48.610;9.334;2023-04-02T09:34:27;1.05;;;0.43;;
60588;SDS011;46421;48.610;9.334;2023-04-02T09:36:55;1.15;;;0.40;;
60588;SDS011;46421;48.610;9.334;2023-04-02T09:39:24;1.80;;;0.57;;
60588;SDS011;46421;48.610;9.334;2023-04-02T09:41:50;0.77;;;0.30;;
60588;SDS011;46421;48.610;9.334;2023-04-02T09:44:23;1.15;;;0.40;;
60588;SDS011;46421;48.610;9.334;2023-04-02T09:46:57;0.90;;;0.40;;
60588;SDS011;46421;48.610;9.334;2023-04-02T09:49:30;1.30;;;0.50;;
60588;SDS011;46421;48.610;9.334;2023-04-02T09:55:09;2.38;;;0.50;;
60588;SDS011;46421;48.610;9.334;2023-04-02T09:57:42;0.80;;;0.30;;
60588;SDS011;46421;48.610;9.334;2023-04-02T10:00:22;0.95;;;0.40;;
60588;SDS011;46421;48.610;9.334;2023-04-02T10:05:38;0.70;;;0.40;;
60588;SDS011;46421;48.610;9.334;2023-04-02T10:10:42;1.67;;;0.40;;
60588;SDS011;46421;48.610;9.334;2023-04-02T10:13:25;0.43;;;0.30;;
60588;SDS011;46421;48.610;9.334;2023-04-02T10:19:14;0.52;;;0.20;;
60588;SDS011;46421;48.610;9.334;2023-04-02T10:21:49;0.40;;;0.20;;
60588;SDS011;46421;48.610;9.334;2023-04-02T10:45:56;1.25;;;0.60;;
60588;SDS011;46421;48.610;9.334;2023-04-02T10:51:45;0.43;;;0.30;;
60588;SDS011;46421;48.610;9.334;2023-04-02T10:59:43;0.50;;;0.30;;
60588;SDS011;46421;48.610;9.334;2023-04-02T11:05:02;0.73;;;0.30;;
60588;SDS011;46421;48.610;9.334;2023-04-02T11:07:42;0.80;;;0.30;;
60588;SDS011;46421;48.610;9.334;2023-04-02T11:10:22;0.52;;;0.40;;
60588;SDS011;46421;48.610;9.334;2023-04-02T11:12:53;1.73;;;0.40;;
60588;SDS011;46421;48.610;9.334;2023-04-02T11:15:22;1.05;;;0.40;;
60588;SDS011;46421;48.610;9.334;2023-04-02T11:17:48;1.23;;;0.40;;
60588;SDS011;46421;48.610;9.334;2023-04-02T11:23:10;0.47;;;0.30;;
60588;SDS011;46421;48.610;9.334;2023-04-02T11:25:37;1.70;;;0.52;;
60588;SDS011;46421;48.610;9.334;2023-04-02T11:30:51;0.40;;;0.30;;
60588;SDS011;46421;48.610;9.334;2023-04-02T11:33:22;4.80;;;0.70;;
60588;SDS011;46421;48.610;9.334;2023-04-02T11:35:54;1.55;;;0.60;;
60588;SDS011;46421;48.610;9.334;2023-04-02T11:46:42;1.45;;;0.60;;
60588;SDS011;46421;48.610;9.334;2023-04-02T11:48:56;3.03;;;0.60;;
60588;SDS011;46421;48.610;9.334;2023-04-02T11:51:59;2.50;;;0.70;;
60588;SDS011;46421;48.610;9.334;2023-04-02T11:54:27;1.08;;;0.50;;
60588;SDS011;46421;48.610;9.334;2023-04-02T11:56:58;3.30;;;0.80;;
60588;SDS011;46421;48.610;9.334;2023-04-02T11:59:48;1.10;;;0.52;;
60588;SDS011;46421;48.610;9.334;2023-04-02T12:02:34;1.02;;;0.50;;
60588;SDS011;46421;48.610;9.334;2023-04-02T12:05:30;1.20;;;0.60;;
60588;SDS011;46421;48.610;9.334;2023-04-02T12:08:14;1.83;;;0.60;;
60588;SDS011;46421;48.610;9.334;2023-04-02T12:10:51;1.95;;;0.60;;
60588;SDS011;46421;48.610;9.334;2023-04-02T12:13:18;1.48;;;0.55;;
60588;SDS011;46421;48.610;9.334;2023-04-02T12:15:45;1.17;;;0.70;;
60588;SDS011;46421;48.610;9.334;2023-04-02T12:20:47;0.85;;;0.47;;
60588;SDS011;46421;48.610;9.334;2023-04-02T12:23:30;2.10;;;0.68;;
60588;SDS011;46421;48.610;9.334;2023-04-02T12:26:01;0.93;;;0.30;;
60588;SDS011;46421;48.610;9.334;2023-04-02T12:28:30;1.50;;;0.70;;
60588;SDS011;46421;48.610;9.334;2023-04-02T12:31:01;2.30;;;0.80;;
60588;SDS011;46421;48.610;9.334;2023-04-02T12:33:41;1.75;;;0.55;;
60588;SDS011;46421;48.610;9.334;2023-04-02T12:38:42;3.38;;;0.80;;
60588;SDS011;46421;48.610;9.334;2023-04-02T12:41:27;2.17;;;0.60;;
60588;SDS011;46421;48.610;9.334;2023-04-02T12:43:55;2.60;;;0.68;;
60588;SDS011;46421;48.610;9.334;2023-04-02T12:46:29;2.60;;;0.73;;
60588;SDS011;46421;48.610;9.334;2023-04-02T12:49:39;1.90;;;0.68;;
60588;SDS011;46421;48.610;9.334;2023-04-02T12:52:02;2.22;;;0.73;;
60588;SDS011;46421;48.610;9.334;2023-04-02T12:54:30;0.88;;;0.50;;
60588;SDS011;46421;48.610;9.334;2023-04-02T12:59:46;1.00;;;0.50;;
60588;SDS011;46421;48.610;9.334;2023-04-02T13:02:19;0.85;;;0.50;;
60588;SDS011;46421;48.610;9.334;2023-04-02T13:04:56;0.60;;;0.40;;
60588;SDS011;46421;48.610;9.334;2023-04-02T13:07:28;1.63;;;0.65;;
60588;SDS011;46421;48.610;9.334;2023-04-02T13:09:56;3.00;;;0.65;;
60588;SDS011;46421;48.610;9.334;2023-04-02T13:14:55;1.57;;;0.60;;
60588;SDS011;46421;48.610;9.334;2023-04-02T13:22:58;0.98;;;0.57;;
60588;SDS011;46421;48.610;9.334;2023-04-02T13:25:29;1.95;;;0.50;;
60588;SDS011;46421;48.610;9.334;2023-04-02T13:27:56;0.95;;;0.50;;
60588;SDS011;46421;48.610;9.334;2023-04-02T13:30:23;2.28;;;0.68;;
60588;SDS011;46421;48.610;9.334;2023-04-02T13:32:50;0.85;;;0.50;;
60588;SDS011;46421;48.610;9.334;2023-04-02T13:35:15;1.40;;;0.60;;
60588;SDS011;46421;48.610;9.334;2023-04-02T13:37:41;1.20;;;0.70;;
60588;SDS011;46421;48.610;9.334;2023-04-02T13:40:08;1.67;;;0.60;;
60588;SDS011;46421;48.610;9.334;2023-04-02T13:42:37;2.45;;;0.70;;
60588;SDS011;46421;48.610;9.334;2023-04-02T13:45:03;1.52;;;0.68;;
60588;SDS011;46421;48.610;9.334;2023-04-02T13:47:34;1.52;;;0.63;;
60588;SDS011;46421;48.610;9.334;2023-04-02T13:49:59;1.00;;;0.60;;
60588;SDS011;46421;48.610;9.334;2023-04-02T13:52:24;0.90;;;0.60;;
60588;SDS011;46421;48.610;9.334;2023-04-02T13:54:51;1.95;;;0.70;;
60588;SDS011;46421;48.610;9.334;2023-04-02T13:57:22;1.90;;;0.68;;
60588;SDS011;46421;48.610;9.334;2023-04-02T13:59:47;1.90;;;0.80;;
60588;SDS011;46421;48.610;9.334;2023-04-02T14:02:15;2.60;;;0.90;;
60588;SDS011;46421;48.610;9.334;2023-04-02T14:04:44;2.10;;;0.75;;
60588;SDS011;46421;48.610;9.334;2023-04-02T14:15:44;1.77;;;0.70;;
60588;SDS011;46421;48.610;9.334;2023-04-02T14:24:00;1.02;;;0.45;;
60588;SDS011;46421;48.610;9.334;2023-04-02T14:26:54;2.28;;;0.75;;
60588;SDS011;46421;48.610;9.334;2023-04-02T14:30:13;1.80;;;0.55;;
60588;SDS011;46421;48.610;9.334;2023-04-02T14:35:17;1.33;;;0.60;;
60588;SDS011;46421;48.610;9.334;2023-04-02T14:41:16;2.40;;;0.70;;
60588;SDS011;46421;48.610;9.334;2023-04-02T14:43:59;1.48;;;0.60;;
60588;SDS011;46421;48.610;9.334;2023-04-02T14:46:28;1.52;;;0.60;;
60588;SDS011;46421;48.610;9.334;2023-04-02T14:52:07;1.02;;;0.47;;
60588;SDS011;46421;48.610;9.334;2023-04-02T14:54:36;0.45;;;0.40;;
60588;SDS011;46421;48.610;9.334;2023-04-02T15:02:45;1.35;;;0.70;;
60588;SDS011;46421;48.610;9.334;2023-04-02T15:05:23;1.23;;;0.68;;
60588;SDS011;46421;48.610;9.334;2023-04-02T15:07:58;3.17;;;1.23;;
60588;SDS011;46421;48.610;9.334;2023-04-02T15:10:33;1.98;;;0.80;;
60588;SDS011;46421;48.610;9.334;2023-04-02T15:13:03;4.85;;;1.33;;
60588;SDS011;46421;48.610;9.334;2023-04-02T15:15:53;3.13;;;1.00;;
60588;SDS011;46421;48.610;9.334;2023-04-02T15:18:30;2.30;;;1.00;;
60588;SDS011;46421;48.610;9.334;2023-04-02T15:21:12;1.17;;;0.57;;
60588;SDS011;46421;48.610;9.334;2023-04-02T15:24:03;0.63;;;0.40;;
60588;SDS011;46421;48.610;9.334;2023-04-02T15:29:27;1.55;;;0.70;;
60588;SDS011;46421;48.610;9.334;2023-04-02T15:35:40;1.55;;;0.70;;
60588;SDS011;46421;48.610;9.334;2023-04-02T15:38:14;2.17;;;0.80;;
60588;SDS011;46421;48.610;9.334;2023-04-02T15:40:58;1.80;;;0.80;;
60588;SDS011;46421;48.610;9.334;2023-04-02T15:43:42;0.90;;;0.50;;
60588;SDS011;46421;48.610;9.334;2023-04-02T15:49:06;1.30;;;0.70;;
60588;SDS011;46421;48.610;9.334;2023-04-02T16:03:03;1.27;;;0.70;;
60588;SDS011;46421;48.610;9.334;2023-04-02T16:05:42;1.80;;;0.68;;
60588;SDS011;46421;48.610;9.334;2023-04-02T16:10:54;3.08;;;0.95;;
60588;SDS011;46421;48.610;9.334;2023-04-02T16:13:38;3.37;;;1.27;;
60588;SDS011;46421;48.610;9.334;2023-04-02T16:16:10;2.85;;;0.80;;
60588;SDS011;46421;48.610;9.334;2023-04-02T16:21:37;3.33;;;1.10;;
60588;SDS011;46421;48.610;9.334;2023-04-02T16:24:12;2.83;;;1.00;;
60588;SDS011;46421;48.610;9.334;2023-04-02T16:34:52;3.50;;;1.20;;
60588;SDS011;46421;48.610;9.334;2023-04-02T16:37:43;2.58;;;1.00;;
60588;SDS011;46421;48.610;9.334;2023-04-02T16:40:18;3.28;;;1.33;;
60588;SDS011;46421;48.610;9.334;2023-04-02T16:43:06;4.40;;;1.65;;
60588;SDS011;46421;48.610;9.334;2023-04-02T16:48:50;3.70;;;1.45;;
60588;SDS011;46421;48.610;9.334;2023-04-02T17:05:07;3.72;;;1.50;;
60588;SDS011;46421;48.610;9.334;2023-04-02T17:07:53;2.20;;;1.00;;
60588;SDS011;46421;48.610;9.334;2023-04-02T17:18:43;3.17;;;1.30;;
60588;SDS011;46421;48.610;9.334;2023-04-02T17:21:12;3.03;;;1.08;;
60588;SDS011;46421;48.610;9.334;2023-04-02T17:23:53;1.95;;;0.93;;
60588;SDS011;46421;48.610;9.334;2023-04-02T17:26:25;2.63;;;1.13;;
60588;SDS011;46421;48.610;9.334;2023-04-02T17:28:53;2.42;;;1.00;;
60588;SDS011;46421;48.610;9.334;2023-04-02T17:31:22;3.33;;;1.33;;
60588;SDS011;46421;48.610;9.334;2023-04-02T17:33:48;2.55;;;0.85;;
60588;SDS011;46421;48.610;9.334;2023-04-02T17:36:21;5.95;;;2.65;;
60588;SDS011;46421;48.610;9.334;2023-04-02T17:44:37;4.95;;;2.00;;
60588;SDS011;46421;48.610;9.334;2023-04-02T17:49:58;4.88;;;2.50;;
60588;SDS011;46421;48.610;9.334;2023-04-02T17:52:47;3.72;;;1.48;;
60588;SDS011;46421;48.610;9.334;2023-04-02T17:55:59;4.97;;;2.53;;
60588;SDS011;46421;48.610;9.334;2023-04-02T17:58:44;7.88;;;5.13;;
60588;SDS011;46421;48.610;9.334;2023-04-02T18:04:44;3.30;;;1.40;;
60588;SDS011;46421;48.610;9.334;2023-04-02T18:07:23;2.33;;;1.02;;
60588;SDS011;46421;48.610;9.334;2023-04-02T18:10:01;3.83;;;1.85;;
60588;SDS011;46421;48.610;9.334;2023-04-02T18:16:01;1.77;;;0.88;;
60588;SDS011;46421;48.610;9.334;2023-04-02T18:21:18;3.45;;;1.30;;
60588;SDS011;46421;48.610;9.334;2023-04-02T18:32:07;4.10;;;1.40;;
60588;SDS011;46421;48.610;9.334;2023-04-02T18:42:53;4.07;;;1.65;;
60588;SDS011;46421;48.610;9.334;2023-04-02T18:45:31;3.78;;;1.35;;
60588;SDS011;46421;48.610;9.334;2023-04-02T18:48:12;4.15;;;1.50;;
60588;SDS011;46421;48.610;9.334;2023-04-02T18:50:53;3.35;;;1.50;;
60588;SDS011;46421;48.610;9.334;2023-04-02T18:53:20;3.08;;;1.40;;
60588;SDS011;46421;48.610;9.334;2023-04-02T18:56:10;3.10;;;1.20;;
60588;SDS011;46421;48.610;9.334;2023-04-02T18:58:43;3.60;;;1.50;;
60588;SDS011;46421;48.610;9.334;2023-04-02T19:01:35;3.38;;;1.60;;
60588;SDS011;46421;48.610;9.334;2023-04-02T19:04:05;4.68;;;1.70;;
60588;SDS011;46421;48.610;9.334;2023-04-02T19:06:43;4.13;;;1.95;;
60588;SDS011;46421;48.610;9.334;2023-04-02T19:09:21;5.32;;;2.03;;
60588;SDS011;46421;48.610;9.334;2023-04-02T19:11:51;4.40;;;1.83;;
60588;SDS011;46421;48.610;9.334;2023-04-02T19:14:17;4.70;;;1.63;;
60588;SDS011;46421;48.610;9.334;2023-04-02T19:17:01;3.90;;;1.58;;
60588;SDS011;46421;48.610;9.334;2023-04-02T19:22:20;5.57;;;2.05;;
60588;SDS011;46421;48.610;9.334;2023-04-02T19:25:01;3.80;;;1.60;;
60588;SDS011;46421;48.610;9.334;2023-04-02T19:30:41;4.22;;;1.83;;
60588;SDS011;46421;48.610;9.334;2023-04-02T19:33:27;4.93;;;1.80;;
60588;SDS011;46421;48.610;9.334;2023-04-02T19:36:52;4.47;;;1.63;;
60588;SDS011;46421;48.610;9.334;2023-04-02T19:39:04;5.63;;;1.90;;
60588;SDS011;46421;48.610;9.334;2023-04-02T19:41:45;4.05;;;1.75;;
60588;SDS011;46421;48.610;9.334;2023-04-02T19:44:31;3.42;;;1.65;;
60588;SDS011;46421;48.610;9.334;2023-04-02T19:46:57;5.32;;;1.90;;
60588;SDS011;46421;48.610;9.334;2023-04-02T19:51:48;3.63;;;1.50;;
60588;SDS011;46421;48.610;9.334;2023-04-02T19:54:14;4.28;;;1.42;;
60588;SDS011;46421;48.610;9.334;2023-04-02T19:56:39;2.97;;;1.63;;
60588;SDS011;46421;48.610;9.334;2023-04-02T19:59:06;4.15;;;1.50;;
60588;SDS011;46421;48.610;9.334;2023-04-02T20:01:32;5.00;;;2.03;;
60588;SDS011;46421;48.610;9.334;2023-04-02T20:03:57;5.88;;;2.00;;
60588;SDS011;46421;48.610;9.334;2023-04-02T20:06:23;3.37;;;1.47;;
60588;SDS011;46421;48.610;9.334;2023-04-02T20:08:48;4.00;;;1.40;;
60588;SDS011;46421;48.610;9.334;2023-04-02T20:11:14;4.85;;;1.80;;
60588;SDS011;46421;48.610;9.334;2023-04-02T20:13:39;7.35;;;1.73;;
60588;SDS011;46421;48.610;9.334;2023-04-02T20:16:05;4.57;;;1.90;;
60588;SDS011;46421;48.610;9.334;2023-04-02T20:18:31;6.15;;;1.65;;
60588;SDS011;46421;48.610;9.334;2023-04-02T20:20:57;4.18;;;1.60;;
60588;SDS011;46421;48.610;9.334;2023-04-02T20:23:23;5.50;;;1.60;;
60588;SDS011;46421;48.610;9.334;2023-04-02T20:25:49;5.75;;;1.55;;
60588;SDS011;46421;48.610;9.334;2023-04-02T20:28:22;6.25;;;2.53;;
60588;SDS011;46421;48.610;9.334;2023-04-02T20:30:48;6.85;;;2.60;;
60588;SDS011;46421;48.610;9.334;2023-04-02T20:33:15;4.18;;;1.85;;
60588;SDS011;46421;48.610;9.334;2023-04-02T20:35:41;3.45;;;1.40;;
60588;SDS011;46421;48.610;9.334;2023-04-02T20:38:07;4.78;;;1.85;;
60588;SDS011;46421;48.610;9.334;2023-04-02T20:40:33;5.88;;;1.67;;
60588;SDS011;46421;48.610;9.334;2023-04-02T20:42:58;3.25;;;1.50;;
60588;SDS011;46421;48.610;9.334;2023-04-02T20:45:24;5.05;;;1.65;;
60588;SDS011;46421;48.610;9.334;2023-04-02T20:47:51;5.40;;;1.83;;
60588;SDS011;46421;48.610;9.334;2023-04-02T20:50:17;4.80;;;1.83;;
60588;SDS011;46421;48.610;9.334;2023-04-02T20:52:42;3.60;;;1.40;;
60588;SDS011;46421;48.610;9.334;2023-04-02T20:55:08;4.88;;;1.73;;
60588;SDS011;46421;48.610;9.334;2023-04-02T20:57:33;4.38;;;1.70;;
60588;SDS011;46421;48.610;9.334;2023-04-02T20:59:59;4.20;;;1.50;;
60588;SDS011;46421;48.610;9.334;2023-04-02T21:02:26;4.18;;;1.65;;
60588;SDS011;46421;48.610;9.334;2023-04-02T21:04:51;2.95;;;1.20;;
60588;SDS011;46421;48.610;9.334;2023-04-02T21:07:17;4.30;;;1.40;;
60588;SDS011;46421;48.610;9.334;2023-04-02T21:09:42;4.30;;;1.48;;
60588;SDS011;46421;48.610;9.334;2023-04-02T21:12:08;3.83;;;1.27;;
60588;SDS011;46421;48.610;9.334;2023-04-02T21:14:33;4.32;;;1.25;;
60588;SDS011;46421;48.610;9.334;2023-04-02T21:17:02;3.05;;;1.23;;
60588;SDS011;46421;48.610;9.334;2023-04-02T21:19:28;3.97;;;1.30;;
60588;SDS011;46421;48.610;9.334;2023-04-02T21:21:53;3.05;;;1.42;;
60588;SDS011;46421;48.610;9.334;2023-04-02T21:24:19;4.82;;;1.40;;
60588;SDS011;46421;48.610;9.334;2023-04-02T21:26:44;3.15;;;1.27;;
60588;SDS011;46421;48.610;9.334;2023-04-02T21:29:10;3.90;;;1.50;;
60588;SDS011;46421;48.610;9.334;2023-04-02T21:31:37;2.92;;;1.40;;
60588;SDS011;46421;48.610;9.334;2023-04-02T21:34:04;2.90;;;1.20;;
60588;SDS011;46421;48.610;9.334;2023-04-02T21:36:31;2.95;;;1.30;;
60588;SDS011;46421;48.610;9.334;2023-04-02T21:39:00;3.65;;;1.27;;
60588;SDS011;46421;48.610;9.334;2023-04-02T21:41:32;3.40;;;1.30;;
60588;SDS011;46421;48.610;9.334;2023-04-02T21:44:00;3.03;;;1.00;;
60588;SDS011;46421;48.610;9.334;2023-04-02T21:46:27;5.53;;;1.42;;
60588;SDS011;46421;48.610;9.334;2023-04-02T21:48:55;5.97;;;1.50;;
60588;SDS011;46421;48.610;9.334;2023-04-02T21:51:23;3.75;;;1.23;;
60588;SDS011;46421;48.610;9.334;2023-04-02T21:53:50;2.78;;;1.02;;
60588;SDS011;46421;48.610;9.334;2023-04-02T21:56:18;5.38;;;1.40;;
60588;SDS011;46421;48.610;9.334;2023-04-02T21:58:46;3.25;;;1.17;;
60588;SDS011;46421;48.610;9.334;2023-04-02T22:01:13;3.42;;;1.30;;
60588;SDS011;46421;48.610;9.334;2023-04-02T22:06:06;3.67;;;1.30;;